Sid Moller — WDF9421 — position and weather

sailwx.info

Track history (hours):
 
Tides and Currents Weather Stations Pressure Air Temp Water Temp Dewpoint Dewpoint Depression Visibility Wind Speed Wind Dir Waves Ship Positions

Sid Moller

Owner: Genesis Marine, LLC, Houston, TX. More information available from US FCC via Universal Licensing System and Coast Guard Vessel Documentation Center.

Last reported at 2017-Nov-08 13:18 UTC. Time now 2017-Nov-22 20:34 UTC.
Position N 31°60' W 091°06'.
Warning: this ship's position is 14 days out of date.

Length 28 m; draft 3 m.

Type: Towing. MMSI: 367504980.

Date/timePositionNaut miles runAvg speedWind from/ knotsBaromVisibWave heightAir tempDewpointWater temp
2017-Nov-08 13:18N 31°60' W 091°06'3 8.0
2017-Nov-08 12:56N 32°02' W 091°04'4 7.5
2017-Nov-08 12:20N 32°06' W 091°06'2 5.6
2017-Nov-08 12:00N 32°08' W 091°05'4 7.7
2017-Nov-08 11:30N 32°08' W 091°01'4 8.2
2017-Nov-08 11:00N 32°12' W 090°60'4 8.4
2017-Nov-08 10:30N 32°16' W 090°58'4 8.1
2017-Nov-08 10:00N 32°18' W 090°55'3 5.3
2017-Nov-08 09:30N 32°21' W 090°56'3 6.8
2017-Nov-08 09:00N 32°21' W 091°00'4 7.7
2017-Nov-08 08:30N 32°25' W 091°00'4 8.1
2017-Nov-08 08:00N 32°27' W 091°05'4 7.4
2017-Nov-08 07:30N 32°30' W 091°07'4 8.2
2017-Nov-08 07:00N 32°34' W 091°07'4 8.1
2017-Nov-08 06:29N 32°38' W 091°09'  
2017-Nov-01 22:23N 32°38' W 091°09'1 3.4
2017-Nov-01 22:00N 32°37' W 091°09'1 1.9
2017-Nov-01 21:19N 32°36' W 091°08'1 3.1
2017-Nov-01 21:00N 32°35' W 091°08'2 4.6
2017-Nov-01 20:30N 32°33' W 091°06'2 3.6
2017-Nov-01 19:59N 32°31' W 091°06'2 4.7
2017-Nov-01 19:30N 32°29' W 091°07'3 5.4
2017-Nov-01 19:00N 32°27' W 091°05'3 5.5
2017-Nov-01 18:30N 32°26' W 091°02'  
2017-Oct-30 05:55N 29°56' W 090°22'  
Track history (hours):
 
Tides and Currents Weather Stations Pressure Air Temp Water Temp Dewpoint Dewpoint Depression Visibility Wind Speed Wind Dir Waves Ship Positions

Sid Moller

Owner: Genesis Marine, LLC, Houston, TX. More information available from US FCC via Universal Licensing System and Coast Guard Vessel Documentation Center.

Last reported at 2017-Nov-08 13:18 UTC. Time now 2017-Nov-22 20:34 UTC.
Position N 31°60' W 091°06'.
Warning: this ship's position is 14 days out of date.

Length 28 m; draft 3 m.

Type: Towing. MMSI: 367504980.

Date/timePositionNaut miles runAvg speedWind from/ knotsBaromVisibWave heightAir tempDewpointWater temp
2017-Nov-08 13:18N 31°60' W 091°06'3 8.0
2017-Nov-08 12:56N 32°02' W 091°04'4 7.5
2017-Nov-08 12:20N 32°06' W 091°06'2 5.6
2017-Nov-08 12:00N 32°08' W 091°05'4 7.7
2017-Nov-08 11:30N 32°08' W 091°01'4 8.2
2017-Nov-08 11:00N 32°12' W 090°60'4 8.4
2017-Nov-08 10:30N 32°16' W 090°58'4 8.1
2017-Nov-08 10:00N 32°18' W 090°55'3 5.3
2017-Nov-08 09:30N 32°21' W 090°56'3 6.8
2017-Nov-08 09:00N 32°21' W 091°00'4 7.7
2017-Nov-08 08:30N 32°25' W 091°00'4 8.1
2017-Nov-08 08:00N 32°27' W 091°05'4 7.4
2017-Nov-08 07:30N 32°30' W 091°07'4 8.2
2017-Nov-08 07:00N 32°34' W 091°07'4 8.1
2017-Nov-08 06:29N 32°38' W 091°09'  
2017-Nov-01 22:23N 32°38' W 091°09'1 3.4
2017-Nov-01 22:00N 32°37' W 091°09'1 1.9
2017-Nov-01 21:19N 32°36' W 091°08'1 3.1
2017-Nov-01 21:00N 32°35' W 091°08'2 4.6
2017-Nov-01 20:30N 32°33' W 091°06'2 3.6
2017-Nov-01 19:59N 32°31' W 091°06'2 4.7
2017-Nov-01 19:30N 32°29' W 091°07'3 5.4
2017-Nov-01 19:00N 32°27' W 091°05'3 5.5
2017-Nov-01 18:30N 32°26' W 091°02'  
2017-Oct-30 05:55N 29°56' W 090°22'  

Dump ship's entire track history